Guemes, Washington
Current Conditions -  °F | °C
As of 11:56 AM on Saturday 20 Dec 2014 (Local Time) from KNUW Reporting Station
Overcast Overcast  
Wind Chill: 11°   Ceiling: 7500
Heat Index: 11°   Visibility: 10mi
Dew Point:   Wind: 28mph
Humidity: 69%   Direction: 130°SE
Pressure: 29.51"   Gusts: 38mph
Location:  48.4652°N, 122.617°W
Report Text: KNUW 201956Z 13024G33KT 10SM SCT028 SCT040 BKN075 OVC200 11/06 A2951 RMK AO2 PK WND 13034/1934 SLP997 T01110056 VISNO E $
Loading
Personal Weather Stations






























Interactive Weather Map New forecast layout! Learn more

10-Day Weather Forecast

Advertisements
Track Severe Weather on mobile